Time;durP1;ratioP1;P1;durP2;ratioP2;P2;SDS_P1;SDS_P2;PMS_P1;PMS_P2;Temp;Humidity;BMP_temperature;BMP_pressure;BME280_temperature;BME280_humidity;BME280_pressure;Samples;Min_cycle;Max_cycle;Signal;HPM_P1;HPM_P2
2023/05/09 00:01:54;;;;;;;17.38;11.98;;;;;;;;;;5049087;28;20544;-76
2023/05/09 00:04:20;;;;;;;16.90;12.32;;;;;;;;;;5053127;28;20037;-75
2023/05/09 00:06:46;;;;;;;18.65;12.75;;;;;;;;;;5047602;28;20052;-75
2023/05/09 00:09:12;;;;;;;17.75;12.07;;;;;;;;;;5044457;28;20041;-76
2023/05/09 00:11:38;;;;;;;17.65;12.35;;;;;;;;;;5072466;28;20063;-75
2023/05/09 00:14:04;;;;;;;17.20;12.52;;;;;;;;;;5044659;28;20033;-75
2023/05/09 00:16:31;;;;;;;16.83;11.93;;;;;;;;;;5042264;28;20123;-76
2023/05/09 00:18:58;;;;;;;18.48;12.77;;;;;;;;;;5075167;28;20040;-75
2023/05/09 00:21:24;;;;;;;16.33;12.40;;;;;;;;;;5042272;28;20053;-76
2023/05/09 00:23:50;;;;;;;20.48;13.05;;;;;;;;;;5041619;28;20037;-75
2023/05/09 00:26:16;;;;;;;18.52;12.55;;;;;;;;;;5043009;28;20124;-75
2023/05/09 00:28:42;;;;;;;17.23;12.85;;;;;;;;;;5040926;28;20610;-76
2023/05/09 00:31:08;;;;;;;15.55;11.68;;;;;;;;;;5041469;28;20140;-76
2023/05/09 00:33:34;;;;;;;20.02;14.50;;;;;;;;;;5042316;28;20131;-77
2023/05/09 00:36:00;;;;;;;20.50;14.43;;;;;;;;;;5045614;28;20049;-75
2023/05/09 00:38:27;;;;;;;17.40;12.77;;;;;;;;;;5071991;28;20041;-74
2023/05/09 00:40:58;;;;;;;19.25;14.38;;;;;;;;;;5042302;28;20095;-75
2023/05/09 00:43:25;;;;;;;18.80;14.57;;;;;;;;;;5080343;28;20060;-75
2023/05/09 00:45:51;;;;;;;20.95;15.95;;;;;;;;;;5059305;28;20045;-75
2023/05/09 00:48:17;;;;;;;22.77;16.25;;;;;;;;;;5053445;28;20059;-75
2023/05/09 00:50:43;;;;;;;21.35;16.48;;;;;;;;;;5073922;28;20076;-75
2023/05/09 00:53:09;;;;;;;27.45;18.50;;;;;;;;;;5055560;28;20040;-75
2023/05/09 00:55:35;;;;;;;25.98;17.60;;;;;;;;;;5052247;28;20056;-75
2023/05/09 00:58:02;;;;;;;21.48;16.77;;;;;;;;;;5042022;28;20041;-75
2023/05/09 01:00:28;;;;;;;25.58;17.77;;;;;;;;;;5056990;28;20041;-75
2023/05/09 01:02:55;;;;;;;24.08;18.45;;;;;;;;;;5047792;28;20431;-75
2023/05/09 01:05:23;;;;;;;27.08;20.02;;;;;;;;;;5049546;28;20045;-75
2023/05/09 01:07:52;;;;;;;27.95;20.20;;;;;;;;;;5045084;28;20083;-75
2023/05/09 01:10:20;;;;;;;23.65;18.25;;;;;;;;;;5047907;28;20501;-75
2023/05/09 01:12:52;;;;;;;25.15;17.75;;;;;;;;;;5045168;28;20040;-75
2023/05/09 01:15:37;;;;;;;24.95;18.10;;;;;;;;;;5073641;28;20114;-75
2023/05/09 01:18:16;;;;;;;24.65;17.65;;;;;;;;;;5037661;28;20069;-75
2023/05/09 01:20:46;;;;;;;26.98;19.20;;;;;;;;;;5073560;28;20057;-75
2023/05/09 01:23:32;;;;;;;27.35;19.50;;;;;;;;;;5042416;28;20680;-75
2023/05/09 01:26:11;;;;;;;26.77;18.52;;;;;;;;;;5042085;28;20441;-75
2023/05/09 01:28:48;;;;;;;23.73;17.38;;;;;;;;;;5041134;28;20044;-76
2023/05/09 01:31:15;;;;;;;26.38;18.88;;;;;;;;;;5041447;28;20047;-76
2023/05/09 01:33:42;;;;;;;26.98;19.00;;;;;;;;;;5037644;28;20188;-75
2023/05/09 01:36:11;;;;;;;22.98;17.80;;;;;;;;;;5039102;28;20041;-75
2023/05/09 01:38:38;;;;;;;24.02;17.67;;;;;;;;;;5041875;28;20051;-75
2023/05/09 01:41:06;;;;;;;23.65;17.10;;;;;;;;;;5040350;28;20095;-74
2023/05/09 01:43:33;;;;;;;26.70;17.30;;;;;;;;;;5046248;28;20045;-75
2023/05/09 01:45:59;;;;;;;25.08;18.25;;;;;;;;;;5062004;28;20071;-75
2023/05/09 01:48:26;;;;;;;25.42;17.77;;;;;;;;;;5054903;28;20040;-75
2023/05/09 01:50:54;;;;;;;23.02;16.38;;;;;;;;;;5071336;28;20054;-76
2023/05/09 01:53:21;;;;;;;24.27;17.63;;;;;;;;;;5055719;28;20403;-75
2023/05/09 01:55:48;;;;;;;22.85;17.17;;;;;;;;;;5084064;28;20063;-75
2023/05/09 01:58:15;;;;;;;22.98;18.13;;;;;;;;;;5047664;28;20672;-76
2023/05/09 02:00:41;;;;;;;25.95;17.75;;;;;;;;;;5055667;28;20040;-76
2023/05/09 02:03:08;;;;;;;26.50;18.40;;;;;;;;;;5099570;28;20439;-75
2023/05/09 02:05:34;;;;;;;25.60;18.98;;;;;;;;;;5044746;28;20056;-75
2023/05/09 02:08:00;;;;;;;30.77;19.90;;;;;;;;;;5047450;28;20527;-75
2023/05/09 02:10:28;;;;;;;26.02;18.73;;;;;;;;;;5038434;28;20041;-75
2023/05/09 02:12:54;;;;;;;29.60;20.17;;;;;;;;;;5049323;28;20048;-76
2023/05/09 02:15:20;;;;;;;32.15;22.05;;;;;;;;;;5040813;28;20373;-76
2023/05/09 02:17:46;;;;;;;29.33;20.13;;;;;;;;;;5039744;28;20040;-75
2023/05/09 02:20:13;;;;;;;31.30;21.05;;;;;;;;;;5036993;28;20445;-75
2023/05/09 02:22:40;;;;;;;32.53;20.38;;;;;;;;;;5035196;28;20168;-76
2023/05/09 02:25:07;;;;;;;32.60;21.45;;;;;;;;;;5074387;28;20123;-74
2023/05/09 02:27:33;;;;;;;32.80;22.45;;;;;;;;;;5038042;28;20077;-75
2023/05/09 02:30:03;;;;;;;32.10;22.35;;;;;;;;;;5040282;28;20107;-75
2023/05/09 02:32:30;;;;;;;34.08;22.92;;;;;;;;;;5039172;28;20492;-75
2023/05/09 02:34:57;;;;;;;35.58;23.00;;;;;;;;;;5072477;28;20099;-75
2023/05/09 02:37:23;;;;;;;37.72;25.30;;;;;;;;;;5038756;28;20045;-75
2023/05/09 02:39:50;;;;;;;39.75;26.00;;;;;;;;;;5038665;28;20450;-74
2023/05/09 02:42:18;;;;;;;41.08;25.30;;;;;;;;;;5038846;28;20103;-75
2023/05/09 02:44:44;;;;;;;37.10;25.35;;;;;;;;;;5071696;28;20067;-75
2023/05/09 02:47:10;;;;;;;39.85;26.10;;;;;;;;;;5041588;28;20041;-75
2023/05/09 02:49:36;;;;;;;38.92;25.77;;;;;;;;;;5045409;28;20497;-75
2023/05/09 02:52:02;;;;;;;43.88;27.05;;;;;;;;;;5079455;28;20052;-75
2023/05/09 02:54:28;;;;;;;38.35;25.38;;;;;;;;;;5034063;28;20132;-75
2023/05/09 02:56:54;;;;;;;41.90;27.27;;;;;;;;;;5049160;28;20102;-75
2023/05/09 02:59:20;;;;;;;40.40;26.50;;;;;;;;;;5048945;28;20044;-75
2023/05/09 03:01:46;;;;;;;43.97;27.77;;;;;;;;;;5071446;28;20061;-75
2023/05/09 03:04:12;;;;;;;44.35;27.92;;;;;;;;;;5043551;28;20045;-75
2023/05/09 03:06:38;;;;;;;41.92;27.00;;;;;;;;;;5050452;28;20079;-75
2023/05/09 03:09:04;;;;;;;38.80;25.95;;;;;;;;;;5040496;28;20071;-75
2023/05/09 03:11:30;;;;;;;39.88;24.65;;;;;;;;;;5048746;28;20060;-75
2023/05/09 03:13:57;;;;;;;43.60;26.95;;;;;;;;;;5040851;28;20120;-75
2023/05/09 03:16:22;;;;;;;41.67;25.50;;;;;;;;;;5047213;28;20087;-75
2023/05/09 03:18:49;;;;;;;37.65;24.67;;;;;;;;;;5044107;28;20065;-75
2023/05/09 03:21:15;;;;;;;37.70;25.13;;;;;;;;;;5038017;28;20079;-75
2023/05/09 03:23:41;;;;;;;38.78;24.30;;;;;;;;;;5038669;28;20052;-75
2023/05/09 03:26:07;;;;;;;39.53;25.35;;;;;;;;;;5036965;28;20052;-74
2023/05/09 03:28:33;;;;;;;39.45;25.30;;;;;;;;;;5041571;28;20041;-74
2023/05/09 03:30:59;;;;;;;37.20;24.73;;;;;;;;;;5038134;28;20093;-74
2023/05/09 03:33:25;;;;;;;39.35;26.40;;;;;;;;;;5038924;28;20067;-75
2023/05/09 03:35:51;;;;;;;44.28;27.17;;;;;;;;;;5040757;28;20057;-74
2023/05/09 03:38:17;;;;;;;39.63;27.02;;;;;;;;;;5070542;28;20063;-75
2023/05/09 03:40:43;;;;;;;38.92;25.08;;;;;;;;;;5038439;28;20484;-75
2023/05/09 03:43:09;;;;;;;42.92;26.88;;;;;;;;;;5040556;28;20057;-74
2023/05/09 03:45:37;;;;;;;40.95;26.17;;;;;;;;;;5036401;28;20053;-74
2023/05/09 03:48:07;;;;;;;38.22;24.35;;;;;;;;;;5041013;28;20045;-75
2023/05/09 03:50:33;;;;;;;40.10;25.63;;;;;;;;;;5039363;28;20049;-74
2023/05/09 03:52:59;;;;;;;39.78;24.42;;;;;;;;;;5037946;28;20266;-74
2023/05/09 03:55:25;;;;;;;41.08;25.00;;;;;;;;;;5039217;28;20084;-75
2023/05/09 03:57:51;;;;;;;38.72;26.30;;;;;;;;;;5042837;28;20160;-74
2023/05/09 04:00:17;;;;;;;40.63;26.02;;;;;;;;;;5041802;28;20068;-75
2023/05/09 04:02:43;;;;;;;42.30;26.92;;;;;;;;;;5042559;28;20045;-74
2023/05/09 04:05:09;;;;;;;41.67;25.83;;;;;;;;;;5038715;28;20056;-74
2023/05/09 04:07:35;;;;;;;41.60;25.90;;;;;;;;;;5040260;28;20128;-75
2023/05/09 04:10:01;;;;;;;44.58;27.73;;;;;;;;;;5076601;28;20057;-74
2023/05/09 04:12:27;;;;;;;37.70;25.58;;;;;;;;;;5073744;28;20052;-74
2023/05/09 04:14:53;;;;;;;38.40;24.80;;;;;;;;;;5074134;28;20041;-75
2023/05/09 04:17:19;;;;;;;39.60;24.75;;;;;;;;;;5073894;28;20526;-75
2023/05/09 04:19:45;;;;;;;43.90;27.17;;;;;;;;;;5041360;28;20135;-75
2023/05/09 04:22:11;;;;;;;42.35;26.83;;;;;;;;;;5041891;28;20049;-74
2023/05/09 04:24:37;;;;;;;42.15;27.92;;;;;;;;;;5043347;28;20132;-75
2023/05/09 04:27:03;;;;;;;48.28;29.13;;;;;;;;;;5041637;28;20049;-74
2023/05/09 04:29:29;;;;;;;44.10;28.50;;;;;;;;;;5074151;28;20068;-74
2023/05/09 04:31:55;;;;;;;47.05;28.88;;;;;;;;;;5042202;28;20500;-75
2023/05/09 04:34:21;;;;;;;51.47;29.77;;;;;;;;;;5042243;28;20057;-75
2023/05/09 04:36:47;;;;;;;44.50;28.20;;;;;;;;;;5039421;28;20113;-74
2023/05/09 04:39:13;;;;;;;49.63;31.17;;;;;;;;;;5073912;28;20080;-74
2023/05/09 04:41:42;;;;;;;48.22;31.50;;;;;;;;;;5041767;28;20077;-75
2023/05/09 04:44:08;;;;;;;48.28;31.23;;;;;;;;;;5042960;28;20055;-74
2023/05/09 04:46:34;;;;;;;49.03;30.13;;;;;;;;;;5040707;28;20029;-74
2023/05/09 04:49:00;;;;;;;48.42;30.85;;;;;;;;;;5045364;28;20397;-74
2023/05/09 04:51:26;;;;;;;54.95;31.88;;;;;;;;;;5050162;28;20049;-74
2023/05/09 04:53:52;;;;;;;50.60;31.38;;;;;;;;;;5085379;28;20110;-75
2023/05/09 04:56:18;;;;;;;56.90;34.15;;;;;;;;;;5040507;28;20096;-75
2023/05/09 04:58:44;;;;;;;54.83;31.75;;;;;;;;;;5053341;28;20613;-75
2023/05/09 05:01:10;;;;;;;53.22;33.25;;;;;;;;;;5049021;28;20171;-75
2023/05/09 05:03:36;;;;;;;52.40;31.35;;;;;;;;;;5051169;28;20055;-74
2023/05/09 05:06:02;;;;;;;58.05;34.00;;;;;;;;;;5051329;28;20033;-74
2023/05/09 05:08:28;;;;;;;55.55;32.33;;;;;;;;;;5082889;28;20564;-74
2023/05/09 05:10:54;;;;;;;58.83;35.35;;;;;;;;;;5042842;28;20048;-75
2023/05/09 05:13:20;;;;;;;58.58;35.08;;;;;;;;;;5049763;28;20048;-74
2023/05/09 05:15:46;;;;;;;58.10;34.75;;;;;;;;;;5050184;28;20419;-75
2023/05/09 05:18:12;;;;;;;58.78;33.92;;;;;;;;;;5040844;28;20069;-74
2023/05/09 05:20:42;;;;;;;50.75;32.00;;;;;;;;;;5048894;28;20512;-75
2023/05/09 05:23:09;;;;;;;49.13;30.75;;;;;;;;;;5078232;28;20041;-75
2023/05/09 05:25:35;;;;;;;51.90;31.92;;;;;;;;;;5041549;28;20041;-75
2023/05/09 05:28:01;;;;;;;60.13;35.58;;;;;;;;;;5043937;28;20040;-74
2023/05/09 05:30:27;;;;;;;58.58;34.35;;;;;;;;;;5037347;28;20090;-73
2023/05/09 05:32:53;;;;;;;53.47;33.30;;;;;;;;;;5041614;28;20041;-74
2023/05/09 05:35:22;;;;;;;61.58;36.70;;;;;;;;;;5040406;28;20072;-73
2023/05/09 05:37:48;;;;;;;62.83;37.05;;;;;;;;;;5071559;28;20043;-73
2023/05/09 05:40:14;;;;;;;67.28;37.72;;;;;;;;;;5035895;28;20106;-74
2023/05/09 05:42:40;;;;;;;65.40;38.08;;;;;;;;;;5039567;28;20063;-74
2023/05/09 05:45:07;;;;;;;61.50;35.30;;;;;;;;;;5037433;28;20045;-73
2023/05/09 05:47:33;;;;;;;57.15;34.53;;;;;;;;;;5042391;28;20044;-74
2023/05/09 05:50:00;;;;;;;63.22;36.90;;;;;;;;;;5041790;28;20076;-73
2023/05/09 05:52:26;;;;;;;63.83;38.13;;;;;;;;;;5040062;28;20060;-74
2023/05/09 05:54:52;;;;;;;59.75;36.45;;;;;;;;;;5040812;28;20047;-74
2023/05/09 05:57:18;;;;;;;58.22;35.20;;;;;;;;;;5037772;28;20179;-74
2023/05/09 05:59:46;;;;;;;63.03;37.72;;;;;;;;;;5039022;28;20151;-74
2023/05/09 06:02:13;;;;;;;59.70;37.55;;;;;;;;;;5039153;28;20045;-73
2023/05/09 06:04:39;;;;;;;60.72;36.83;;;;;;;;;;5040919;28;20783;-73
2023/05/09 06:07:05;;;;;;;67.70;40.75;;;;;;;;;;5039569;28;20045;-73
2023/05/09 06:09:31;;;;;;;63.92;37.20;;;;;;;;;;5041671;28;20040;-73
2023/05/09 06:11:57;;;;;;;69.03;39.65;;;;;;;;;;5037831;28;20049;-73
2023/05/09 06:14:23;;;;;;;70.60;40.28;;;;;;;;;;5039337;28;20037;-74
2023/05/09 06:16:50;;;;;;;60.53;38.25;;;;;;;;;;5040669;28;20757;-73
2023/05/09 06:19:16;;;;;;;66.43;38.20;;;;;;;;;;5073478;28;20132;-73
2023/05/09 06:21:42;;;;;;;63.63;37.70;;;;;;;;;;5040506;28;20040;-74
2023/05/09 06:24:08;;;;;;;65.80;37.65;;;;;;;;;;5039086;28;20049;-73
2023/05/09 06:26:35;;;;;;;61.83;37.83;;;;;;;;;;5040117;28;21424;-74
2023/05/09 06:29:01;;;;;;;60.67;37.97;;;;;;;;;;5039579;28;20041;-73
2023/05/09 06:31:27;;;;;;;61.88;38.95;;;;;;;;;;5074224;28;20041;-73
2023/05/09 06:33:53;;;;;;;59.47;37.00;;;;;;;;;;5040457;28;20502;-74
2023/05/09 06:36:19;;;;;;;63.50;37.08;;;;;;;;;;5047582;28;20491;-73
2023/05/09 06:38:45;;;;;;;59.50;34.58;;;;;;;;;;5037930;28;20055;-73
2023/05/09 06:41:11;;;;;;;57.08;34.85;;;;;;;;;;5049912;28;20069;-73
2023/05/09 06:43:37;;;;;;;55.88;35.15;;;;;;;;;;5050253;28;20103;-73
2023/05/09 06:46:03;;;;;;;57.28;35.47;;;;;;;;;;5048154;28;20128;-73
2023/05/09 06:48:29;;;;;;;57.80;33.58;;;;;;;;;;5064674;28;20501;-73
2023/05/09 06:50:55;;;;;;;56.20;34.00;;;;;;;;;;5051405;28;20049;-74
2023/05/09 06:53:21;;;;;;;53.05;33.58;;;;;;;;;;5046926;28;20041;-74
2023/05/09 06:55:47;;;;;;;55.80;34.38;;;;;;;;;;5045526;28;20106;-74
2023/05/09 06:58:13;;;;;;;54.45;34.20;;;;;;;;;;5041585;28;20389;-74
2023/05/09 07:00:42;;;;;;;53.42;34.33;;;;;;;;;;5051037;28;20535;-73
2023/05/09 07:03:09;;;;;;;50.85;31.67;;;;;;;;;;5044775;28;20034;-75
2023/05/09 07:05:35;;;;;;;55.28;34.60;;;;;;;;;;5042156;28;20052;-75
2023/05/09 07:08:01;;;;;;;50.97;32.38;;;;;;;;;;5041422;28;20044;-74
2023/05/09 07:10:27;;;;;;;49.80;32.35;;;;;;;;;;5042316;28;20045;-73
2023/05/09 07:12:53;;;;;;;51.60;32.95;;;;;;;;;;5048464;28;20053;-74
2023/05/09 07:15:19;;;;;;;49.83;30.88;;;;;;;;;;5037781;28;20072;-74
2023/05/09 07:17:45;;;;;;;49.53;32.28;;;;;;;;;;5031257;28;20081;-74
2023/05/09 07:20:11;;;;;;;45.67;28.75;;;;;;;;;;5029720;28;20162;-74
2023/05/09 07:22:38;;;;;;;45.05;28.60;;;;;;;;;;5032358;28;20132;-74
2023/05/09 07:25:05;;;;;;;45.20;30.38;;;;;;;;;;5048053;28;20044;-74
2023/05/09 07:27:31;;;;;;;49.70;28.88;;;;;;;;;;5048672;28;20049;-74
2023/05/09 07:29:57;;;;;;;41.33;27.52;;;;;;;;;;5059406;28;20051;-74
2023/05/09 07:32:23;;;;;;;38.50;25.95;;;;;;;;;;5051909;28;20044;-74
2023/05/09 07:34:49;;;;;;;40.20;26.98;;;;;;;;;;5052795;28;20044;-74
2023/05/09 07:37:15;;;;;;;42.28;27.40;;;;;;;;;;5074483;28;20048;-75
2023/05/09 07:39:41;;;;;;;39.30;25.70;;;;;;;;;;5069569;28;20134;-76
2023/05/09 07:42:07;;;;;;;41.70;26.50;;;;;;;;;;5055048;28;20040;-75
2023/05/09 07:44:33;;;;;;;39.55;26.60;;;;;;;;;;5045132;28;20548;-75
2023/05/09 07:47:00;;;;;;;37.03;25.85;;;;;;;;;;5061994;28;20040;-75
2023/05/09 07:49:26;;;;;;;40.53;26.88;;;;;;;;;;5061929;28;20507;-77
2023/05/09 07:51:52;;;;;;;39.10;24.42;;;;;;;;;;5036271;28;20053;-73
2023/05/09 07:54:18;;;;;;;40.10;24.77;;;;;;;;;;5050730;28;20120;-73
2023/05/09 07:56:44;;;;;;;35.67;24.27;;;;;;;;;;5055825;28;20141;-74
2023/05/09 07:59:11;;;;;;;36.33;23.25;;;;;;;;;;5054035;28;20140;-73
2023/05/09 08:01:37;;;;;;;34.83;22.27;;;;;;;;;;5074154;28;20207;-74
2023/05/09 08:04:05;;;;;;;31.63;21.30;;;;;;;;;;5039129;28;20052;-73
2023/05/09 08:06:31;;;;;;;30.92;21.48;;;;;;;;;;5074421;28;20041;-73
2023/05/09 08:08:57;;;;;;;32.67;21.02;;;;;;;;;;5039863;28;20207;-74
2023/05/09 08:11:23;;;;;;;33.65;21.88;;;;;;;;;;5044521;28;20408;-74
2023/05/09 08:13:49;;;;;;;30.17;21.08;;;;;;;;;;5041376;28;20056;-74
2023/05/09 08:16:16;;;;;;;32.00;21.17;;;;;;;;;;5041255;28;20047;-74
2023/05/09 08:18:42;;;;;;;31.00;21.90;;;;;;;;;;5041797;28;20071;-74
2023/05/09 08:21:08;;;;;;;32.78;21.70;;;;;;;;;;5039783;28;20053;-73
2023/05/09 08:23:34;;;;;;;31.80;21.15;;;;;;;;;;5043224;28;20053;-73
2023/05/09 08:26:00;;;;;;;30.55;21.15;;;;;;;;;;5042951;28;20565;-73
2023/05/09 08:28:27;;;;;;;30.77;21.67;;;;;;;;;;5044364;28;20500;-74
2023/05/09 08:30:57;;;;;;;28.42;19.02;;;;;;;;;;5043563;28;20052;-74
2023/05/09 08:33:23;;;;;;;28.52;20.10;;;;;;;;;;5043512;28;20583;-74
2023/05/09 08:35:53;;;;;;;27.20;20.50;;;;;;;;;;5051053;28;20049;-75
2023/05/09 08:38:19;;;;;;;30.45;20.40;;;;;;;;;;5053355;28;20448;-74
2023/05/09 08:40:45;;;;;;;29.52;19.67;;;;;;;;;;5050963;28;20056;-74
2023/05/09 08:43:12;;;;;;;26.63;18.98;;;;;;;;;;5033545;28;20440;-75
2023/05/09 08:45:50;;;;;;;29.50;19.83;;;;;;;;;;5033895;28;20053;-75
2023/05/09 08:48:16;;;;;;;27.85;20.05;;;;;;;;;;5044953;28;20048;-75
2023/05/09 08:50:43;;;;;;;29.08;20.45;;;;;;;;;;5050008;28;20048;-75
2023/05/09 08:53:09;;;;;;;26.95;19.05;;;;;;;;;;5053277;28;20041;-74
2023/05/09 08:55:35;;;;;;;29.02;20.83;;;;;;;;;;5052260;28;20140;-74
2023/05/09 08:58:03;;;;;;;27.15;19.08;;;;;;;;;;5043426;28;20049;-74
2023/05/09 09:00:29;;;;;;;28.85;19.70;;;;;;;;;;5032187;28;20052;-74
2023/05/09 09:02:56;;;;;;;30.73;19.83;;;;;;;;;;5031700;28;20049;-74
2023/05/09 09:05:22;;;;;;;28.02;20.13;;;;;;;;;;5051336;28;20056;-74
2023/05/09 09:07:49;;;;;;;27.15;20.40;;;;;;;;;;5034552;28;20579;-74
2023/05/09 09:10:16;;;;;;;28.02;20.27;;;;;;;;;;5045252;28;20130;-74
2023/05/09 09:12:43;;;;;;;31.20;18.70;;;;;;;;;;5049991;28;20480;-74
2023/05/09 09:15:11;;;;;;;27.83;19.77;;;;;;;;;;5052091;28;20052;-75
2023/05/09 09:17:38;;;;;;;27.52;20.35;;;;;;;;;;5047895;28;20044;-74
2023/05/09 09:20:07;;;;;;;27.77;20.10;;;;;;;;;;5044261;28;20053;-75
2023/05/09 09:22:37;;;;;;;25.85;19.88;;;;;;;;;;5052179;28;20041;-75
2023/05/09 09:25:03;;;;;;;29.80;21.15;;;;;;;;;;5056915;28;20139;-74
2023/05/09 09:27:31;;;;;;;29.15;21.92;;;;;;;;;;5046962;28;20234;-74
2023/05/09 09:30:06;;;;;;;27.70;20.63;;;;;;;;;;5041784;28;20776;-74
2023/05/09 09:32:33;;;;;;;28.42;21.13;;;;;;;;;;5076814;28;20045;-74
2023/05/09 09:35:08;;;;;;;26.88;20.55;;;;;;;;;;5046390;28;20048;-74
2023/05/09 09:37:35;;;;;;;25.65;20.73;;;;;;;;;;5047190;28;20072;-74
2023/05/09 09:40:01;;;;;;;28.88;20.63;;;;;;;;;;5077736;28;20041;-74
2023/05/09 09:42:39;;;;;;;27.60;20.50;;;;;;;;;;5045811;28;20041;-75
2023/05/09 09:45:09;;;;;;;25.27;20.52;;;;;;;;;;5047651;28;20045;-74
2023/05/09 09:47:35;;;;;;;25.13;19.30;;;;;;;;;;5046235;28;20099;-75
2023/05/09 09:50:11;;;;;;;23.85;19.63;;;;;;;;;;5043056;28;20053;-74
2023/05/09 09:52:41;;;;;;;25.48;19.20;;;;;;;;;;5047731;28;20064;-74
2023/05/09 09:55:08;;;;;;;25.63;19.83;;;;;;;;;;5046644;28;20068;-74
2023/05/09 09:57:40;;;;;;;25.83;19.90;;;;;;;;;;5031820;28;20053;-75
2023/05/09 10:00:07;;;;;;;23.08;18.77;;;;;;;;;;5048339;28;20388;-74
2023/05/09 10:02:33;;;;;;;24.35;18.33;;;;;;;;;;5046189;28;20478;-74
2023/05/09 10:05:08;;;;;;;20.63;16.63;;;;;;;;;;5049531;28;20405;-74
2023/05/09 10:07:34;;;;;;;21.80;17.02;;;;;;;;;;5047647;28;20044;-74
2023/05/09 10:10:04;;;;;;;19.30;15.80;;;;;;;;;;5047899;28;20048;-74
2023/05/09 10:12:33;;;;;;;20.52;16.25;;;;;;;;;;5049042;28;20128;-74
2023/05/09 10:15:01;;;;;;;20.25;15.40;;;;;;;;;;5034952;28;20052;-74
2023/05/09 10:17:29;;;;;;;20.10;16.40;;;;;;;;;;5042038;28;20052;-75
2023/05/09 10:19:56;;;;;;;20.88;17.05;;;;;;;;;;5039944;28;20037;-75
2023/05/09 10:22:23;;;;;;;19.33;15.88;;;;;;;;;;5050831;28;20080;-75
2023/05/09 10:25:01;;;;;;;18.95;16.25;;;;;;;;;;5038218;28;20048;-74
2023/05/09 10:27:28;;;;;;;19.77;15.77;;;;;;;;;;5040998;28;20040;-75
2023/05/09 10:30:03;;;;;;;18.30;14.70;;;;;;;;;;5048554;28;20041;-75
2023/05/09 10:32:38;;;;;;;20.48;15.20;;;;;;;;;;5046242;28;20464;-75
2023/05/09 10:35:06;;;;;;;16.95;14.48;;;;;;;;;;5048210;28;20033;-75
2023/05/09 10:37:32;;;;;;;16.77;14.27;;;;;;;;;;5047167;28;20037;-75
2023/05/09 10:40:00;;;;;;;18.95;15.10;;;;;;;;;;5079039;28;20558;-74
2023/05/09 10:42:27;;;;;;;17.25;14.70;;;;;;;;;;5072287;28;20060;-75
2023/05/09 10:44:53;;;;;;;16.42;13.35;;;;;;;;;;5080696;28;20111;-75
2023/05/09 10:47:20;;;;;;;14.80;12.38;;;;;;;;;;5038892;28;20045;-74
2023/05/09 10:49:46;;;;;;;15.48;12.80;;;;;;;;;;5070882;28;20503;-74
2023/05/09 10:52:13;;;;;;;13.38;11.85;;;;;;;;;;5043292;28;20053;-74
2023/05/09 10:54:39;;;;;;;14.65;11.73;;;;;;;;;;5081280;28;20056;-75
2023/05/09 10:57:08;;;;;;;15.48;11.90;;;;;;;;;;5075406;28;20123;-75
2023/05/09 10:59:39;;;;;;;12.32;10.65;;;;;;;;;;5048136;28;20051;-75
2023/05/09 11:02:10;;;;;;;13.60;10.95;;;;;;;;;;5034765;28;20049;-75
2023/05/09 11:04:40;;;;;;;14.73;10.90;;;;;;;;;;5041962;28;20041;-75
2023/05/09 11:07:23;;;;;;;11.80;10.25;;;;;;;;;;5046966;28;20045;-75
2023/05/09 11:09:52;;;;;;;12.70;10.65;;;;;;;;;;5056087;28;20049;-75
2023/05/09 11:12:23;;;;;;;13.57;10.73;;;;;;;;;;5040763;28;20041;-74
2023/05/09 11:14:51;;;;;;;13.73;11.02;;;;;;;;;;5050302;28;20432;-75
2023/05/09 11:17:20;;;;;;;11.95;10.15;;;;;;;;;;5050606;28;20044;-75
2023/05/09 11:19:46;;;;;;;13.55;11.68;;;;;;;;;;5049815;28;20037;-75
2023/05/09 11:22:16;;;;;;;12.32;11.05;;;;;;;;;;5056175;28;20442;-75
2023/05/09 11:24:49;;;;;;;14.95;11.52;;;;;;;;;;5057151;28;20126;-76
2023/05/09 11:27:21;;;;;;;12.40;10.70;;;;;;;;;;5050549;28;20057;-75
2023/05/09 11:29:55;;;;;;;18.00;11.63;;;;;;;;;;5050309;28;20092;-75
2023/05/09 11:32:22;;;;;;;12.13;10.02;;;;;;;;;;5088278;28;20071;-76
2023/05/09 11:34:48;;;;;;;12.38;10.07;;;;;;;;;;5082635;28;20049;-75
2023/05/09 11:37:20;;;;;;;11.25;10.05;;;;;;;;;;5047573;28;20108;-75
2023/05/09 11:40:00;;;;;;;11.52;10.18;;;;;;;;;;5055264;28;20060;-76
2023/05/09 11:42:29;;;;;;;13.30;10.82;;;;;;;;;;5045167;28;20038;-75
2023/05/09 11:44:58;;;;;;;13.65;11.77;;;;;;;;;;5054469;28;20045;-76
2023/05/09 11:47:26;;;;;;;14.32;11.45;;;;;;;;;;5053093;28;20040;-75
2023/05/09 11:49:52;;;;;;;14.57;11.95;;;;;;;;;;5050948;28;20044;-75
2023/05/09 11:52:19;;;;;;;13.07;11.68;;;;;;;;;;5038770;28;20096;-75
2023/05/09 11:54:45;;;;;;;14.27;11.18;;;;;;;;;;5050520;28;20037;-75
2023/05/09 11:57:16;;;;;;;12.77;11.32;;;;;;;;;;5053189;28;20067;-75
2023/05/09 11:59:42;;;;;;;13.10;11.50;;;;;;;;;;5053200;28;20068;-75
2023/05/09 12:02:08;;;;;;;15.10;12.02;;;;;;;;;;5078589;28;20083;-75
2023/05/09 12:04:35;;;;;;;14.98;12.13;;;;;;;;;;5081769;28;20124;-75
2023/05/09 12:07:01;;;;;;;11.98;10.63;;;;;;;;;;5083259;28;20045;-75
2023/05/09 12:09:31;;;;;;;12.40;9.55;;;;;;;;;;5051333;28;20095;-75
2023/05/09 12:11:58;;;;;;;11.98;9.50;;;;;;;;;;5038617;28;20052;-75
2023/05/09 12:14:31;;;;;;;10.98;9.48;;;;;;;;;;5052496;28;20052;-76
2023/05/09 12:16:57;;;;;;;11.00;9.70;;;;;;;;;;5052764;28;20037;-76
2023/05/09 12:19:24;;;;;;;10.45;9.20;;;;;;;;;;5081428;28;20049;-75
2023/05/09 12:21:55;;;;;;;9.60;8.35;;;;;;;;;;5053140;28;20040;-76
2023/05/09 12:24:21;;;;;;;10.63;9.52;;;;;;;;;;5053493;28;20049;-75
2023/05/09 12:26:47;;;;;;;9.48;8.38;;;;;;;;;;5083759;28;20052;-75
2023/05/09 12:29:14;;;;;;;11.68;8.23;;;;;;;;;;5047226;28;20073;-76
2023/05/09 12:31:41;;;;;;;9.88;8.70;;;;;;;;;;5048601;28;20049;-75
2023/05/09 12:34:08;;;;;;;12.48;8.60;;;;;;;;;;5051906;28;20056;-76
2023/05/09 12:36:35;;;;;;;10.50;9.00;;;;;;;;;;5048196;28;20055;-76
2023/05/09 12:39:01;;;;;;;9.93;8.93;;;;;;;;;;5051500;28;20163;-75
2023/05/09 12:41:28;;;;;;;9.73;8.63;;;;;;;;;;5052265;28;20049;-76
2023/05/09 12:43:54;;;;;;;9.77;8.40;;;;;;;;;;5046481;28;20126;-76
2023/05/09 12:46:21;;;;;;;10.20;8.70;;;;;;;;;;5044021;28;20545;-75
2023/05/09 12:48:48;;;;;;;9.70;8.32;;;;;;;;;;5077201;28;20047;-76
2023/05/09 12:51:19;;;;;;;8.48;7.57;;;;;;;;;;5052751;28;20049;-75
2023/05/09 12:53:45;;;;;;;9.13;7.40;;;;;;;;;;5051935;28;20400;-76
2023/05/09 12:56:16;;;;;;;8.07;7.05;;;;;;;;;;5046121;28;20056;-75
2023/05/09 12:58:50;;;;;;;8.07;6.40;;;;;;;;;;5035128;28;20072;-76
2023/05/09 13:01:16;;;;;;;7.10;6.30;;;;;;;;;;5051035;28;20742;-76
2023/05/09 13:03:43;;;;;;;8.07;6.35;;;;;;;;;;5050454;28;20120;-76
2023/05/09 13:06:13;;;;;;;8.90;6.95;;;;;;;;;;5073892;28;20459;-76
2023/05/09 13:08:40;;;;;;;8.07;7.07;;;;;;;;;;5031947;28;20590;-76
2023/05/09 13:11:09;;;;;;;9.13;7.47;;;;;;;;;;5048961;28;20602;-76
2023/05/09 13:13:35;;;;;;;9.38;8.00;;;;;;;;;;5081563;28;20045;-76
2023/05/09 13:16:03;;;;;;;7.40;6.47;;;;;;;;;;5082784;28;20553;-76
2023/05/09 13:18:29;;;;;;;7.82;6.30;;;;;;;;;;5049437;28;20055;-77
2023/05/09 13:20:55;;;;;;;7.47;6.65;;;;;;;;;;5046688;28;20099;-76
2023/05/09 13:23:21;;;;;;;7.40;6.45;;;;;;;;;;5043407;28;20044;-76
2023/05/09 13:25:47;;;;;;;7.25;6.55;;;;;;;;;;5044291;28;20127;-76
2023/05/09 13:28:14;;;;;;;6.97;5.80;;;;;;;;;;5051624;28;20076;-76
2023/05/09 13:30:40;;;;;;;6.60;5.82;;;;;;;;;;5049671;28;20068;-76
2023/05/09 13:33:06;;;;;;;6.60;5.75;;;;;;;;;;5044621;28;20064;-76
2023/05/09 13:35:32;;;;;;;7.78;6.50;;;;;;;;;;5044843;28;20488;-76
2023/05/09 13:37:59;;;;;;;8.07;6.30;;;;;;;;;;5043277;28;20037;-77
2023/05/09 13:40:25;;;;;;;8.43;6.32;;;;;;;;;;5046883;28;20053;-77
2023/05/09 13:42:51;;;;;;;7.80;7.00;;;;;;;;;;5080660;28;20068;-76
2023/05/09 13:45:17;;;;;;;7.75;6.95;;;;;;;;;;5044512;28;20445;-77
2023/05/09 13:47:43;;;;;;;7.43;6.63;;;;;;;;;;5045113;28;20095;-76
2023/05/09 13:50:10;;;;;;;8.00;7.20;;;;;;;;;;5039213;28;20078;-76
2023/05/09 13:52:36;;;;;;;8.30;6.70;;;;;;;;;;5083628;28;20044;-76
2023/05/09 13:55:02;;;;;;;7.28;6.57;;;;;;;;;;5050514;28;20040;-76
2023/05/09 13:57:28;;;;;;;7.32;6.50;;;;;;;;;;5048447;28;20046;-76
2023/05/09 13:59:54;;;;;;;7.97;7.05;;;;;;;;;;5049713;28;20159;-77
2023/05/09 14:02:20;;;;;;;7.47;6.68;;;;;;;;;;5049560;28;20052;-77
2023/05/09 14:04:46;;;;;;;8.20;7.40;;;;;;;;;;5038502;28;20452;-76
2023/05/09 14:07:13;;;;;;;8.27;7.03;;;;;;;;;;5080171;28;20045;-76
2023/05/09 14:09:39;;;;;;;8.30;7.38;;;;;;;;;;5084328;28;20443;-77
2023/05/09 14:12:06;;;;;;;7.50;6.70;;;;;;;;;;5081496;28;20048;-77
2023/05/09 14:14:32;;;;;;;8.30;7.50;;;;;;;;;;5034575;28;20365;-76
2023/05/09 14:16:58;;;;;;;7.88;7.18;;;;;;;;;;5049747;28;20048;-77
2023/05/09 14:19:25;;;;;;;8.70;7.28;;;;;;;;;;5049188;28;20033;-76
2023/05/09 14:21:52;;;;;;;8.43;7.30;;;;;;;;;;5051574;28;20061;-78